Time;durP1;ratioP1;P1;durP2;ratioP2;P2;SDS_P1;SDS_P2;PMS_P1;PMS_P2;Temp;Humidity;BMP_temperature;BMP_pressure;BME280_temperature;BME280_humidity;BME280_pressure;Samples;Min_cycle;Max_cycle;Signal;HPM_P1;HPM_P2
2022/09/17 00:02:18;;;;;;;;;;;21.30;69.30;;;;;;5015130;28;1239;-67
2022/09/17 00:04:43;;;;;;;;;;;21.30;69.20;;;;;;5015342;28;1146;-67
2022/09/17 00:07:09;;;;;;;;;;;21.30;69.30;;;;;;5015086;28;934;-67
2022/09/17 00:09:34;;;;;;;;;;;21.30;69.30;;;;;;5014872;28;868;-67
2022/09/17 00:12:00;;;;;;;;;;;21.30;69.30;;;;;;5015484;28;967;-67
2022/09/17 00:14:25;;;;;;;;;;;21.30;69.30;;;;;;5015387;28;881;-67
2022/09/17 00:16:51;;;;;;;;;;;21.30;69.30;;;;;;5014520;28;1957;-67
2022/09/17 00:19:20;;;;;;;;;;;21.30;69.30;;;;;;4997088;28;1523;-66
2022/09/17 00:21:46;;;;;;;;;;;21.30;69.40;;;;;;4996900;28;1267;-67
2022/09/17 00:24:12;;;;;;;;;;;21.30;69.40;;;;;;5015314;28;808;-67
2022/09/17 00:26:37;;;;;;;;;;;21.30;69.30;;;;;;4997568;28;1172;-67
2022/09/17 00:29:03;;;;;;;;;;;21.30;69.40;;;;;;5014480;28;892;-67
2022/09/17 00:31:28;;;;;;;;;;;21.30;69.40;;;;;;4996781;28;1218;-67
2022/09/17 00:33:54;;;;;;;;;;;21.30;69.50;;;;;;5013986;28;812;-67
2022/09/17 00:36:20;;;;;;;;;;;21.30;69.40;;;;;;5014338;28;832;-67
2022/09/17 00:38:52;;;;;;;;;;;21.30;69.40;;;;;;5012970;28;2005;-67
2022/09/17 00:41:17;;;;;;;;;;;21.30;69.50;;;;;;5014888;28;1205;-67
2022/09/17 00:43:44;;;;;;;;;;;21.30;69.50;;;;;;5014110;28;2309;-67
2022/09/17 00:46:39;;;;;;;;;;;21.30;69.50;;;;;;5004088;28;1140;-67
2022/09/17 00:49:10;;;;;;;;;;;21.30;69.40;;;;;;4993334;28;2098;-68
2022/09/17 00:51:38;;;;;;;;;;;21.30;69.40;;;;;;5012212;28;1367;-68
2022/09/17 00:54:04;;;;;;;;;;;21.30;69.50;;;;;;4993177;28;2084;-67
2022/09/17 00:56:30;;;;;;;;;;;21.30;69.40;;;;;;4994698;28;2175;-67
2022/09/17 00:58:56;;;;;;;;;;;21.30;69.50;;;;;;5011602;28;1264;-67
2022/09/17 01:01:22;;;;;;;;;;;21.30;69.50;;;;;;5012991;28;1320;-67
2022/09/17 01:03:48;;;;;;;;;;;21.30;69.50;;;;;;5013192;28;1205;-68
2022/09/17 01:06:20;;;;;;;;;;;21.30;69.50;;;;;;5013227;28;1252;-67
2022/09/17 01:09:04;;;;;;;;;;;21.30;69.50;;;;;;4990649;28;1186;-68
2022/09/17 01:11:33;;;;;;;;;;;21.30;69.50;;;;;;5022005;22;3547;-69
2022/09/17 01:14:27;;;;;;;;;;;21.30;69.50;;;;;;4994377;28;1174;-69
2022/09/17 01:17:11;;;;;;;;;;;21.30;70.20;;;;;;4985351;28;1973;-67
2022/09/17 01:19:49;;;;;;;;;;;21.30;69.50;;;;;;4977115;28;1340;-68
2022/09/17 01:22:17;;;;;;;;;;;21.30;69.50;;;;;;4975374;28;1202;-68
2022/09/17 01:24:59;;;;;;;;;;;21.30;69.50;;;;;;4957596;28;1291;-67
2022/09/17 01:27:45;;;;;;;;;;;21.30;69.50;;;;;;4957724;28;1244;-67
2022/09/17 01:30:31;;;;;;;;;;;21.30;69.50;;;;;;4948800;28;1292;-68
2022/09/17 01:33:02;;;;;;;;;;;21.30;69.50;;;;;;4975078;28;1202;-68
2022/09/17 01:35:37;;;;;;;;;;;21.30;69.50;;;;;;4954968;28;1191;-69
2022/09/17 01:38:05;;;;;;;;;;;21.30;69.60;;;;;;4957691;28;1918;-69
2022/09/17 01:40:44;;;;;;;;;;;21.30;69.50;;;;;;4955009;28;1399;-68
2022/09/17 01:43:13;;;;;;;;;;;21.30;69.50;;;;;;4955353;28;1242;-68
2022/09/17 01:45:43;;;;;;;;;;;21.30;69.50;;;;;;4957486;28;1202;-68
2022/09/17 01:48:18;;;;;;;;;;;21.30;69.60;;;;;;4972157;28;1218;-67
2022/09/17 01:50:46;;;;;;;;;;;21.30;69.60;;;;;;4957497;28;1305;-68
2022/09/17 01:53:12;;;;;;;;;;;21.30;69.60;;;;;;4957855;28;970;-68
2022/09/17 01:55:38;;;;;;;;;;;21.30;69.60;;;;;;4957601;28;801;-69
2022/09/17 01:58:09;;;;;;;;;;;21.30;69.60;;;;;;4957549;28;1902;-68
2022/09/17 02:00:34;;;;;;;;;;;21.30;69.70;;;;;;4957418;28;1193;-68
2022/09/17 02:03:25;;;;;;;;;;;21.30;69.60;;;;;;4957383;28;848;-68
2022/09/17 02:05:55;;;;;;;;;;;21.30;69.60;;;;;;4955551;28;1187;-68
2022/09/17 02:08:22;;;;;;;;;;;21.30;69.60;;;;;;4957521;28;1046;-68
2022/09/17 02:11:02;;;;;;;;;;;21.30;69.70;;;;;;4957079;28;1227;-69
2022/09/17 02:13:39;;;;;;;;;;;21.30;69.60;;;;;;4957223;28;1057;-69
2022/09/17 02:16:06;;;;;;;;;;;21.30;69.60;;;;;;4957416;28;1085;-68
2022/09/17 02:18:55;;;;;;;;;;;21.20;69.60;;;;;;4957019;28;1977;-69
2022/09/17 02:21:25;;;;;;;;;;;21.30;69.70;;;;;;4963867;28;1246;-68
2022/09/17 02:24:09;;;;;;;;;;;21.30;69.70;;;;;;4957057;28;1308;-68
2022/09/17 02:26:34;;;;;;;;;;;21.30;69.70;;;;;;4974503;28;986;-68
2022/09/17 02:29:02;;;;;;;;;;;21.30;69.70;;;;;;4957225;28;893;-68
2022/09/17 02:31:28;;;;;;;;;;;21.30;69.70;;;;;;4957120;28;1265;-68
2022/09/17 02:33:55;;;;;;;;;;;21.30;69.70;;;;;;4956683;28;2241;-68
2022/09/17 02:36:22;;;;;;;;;;;21.30;69.80;;;;;;4956786;28;1010;-68
2022/09/17 02:38:53;;;;;;;;;;;21.30;69.70;;;;;;4972804;28;1914;-68
2022/09/17 02:41:22;;;;;;;;;;;21.30;69.70;;;;;;4956873;28;1308;-68
2022/09/17 02:43:55;;;;;;;;;;;21.30;69.80;;;;;;4957052;28;794;-69
2022/09/17 02:46:20;;;;;;;;;;;21.30;69.80;;;;;;4974465;28;804;-68
2022/09/17 02:48:51;;;;;;;;;;;21.30;69.80;;;;;;4974009;28;1117;-68
2022/09/17 02:51:41;;;;;;;;;;;21.30;70.50;;;;;;4956634;28;1315;-67
2022/09/17 02:54:17;;;;;;;;;;;21.20;69.70;;;;;;4956840;28;805;-68
2022/09/17 02:56:45;;;;;;;;;;;21.30;69.80;;;;;;4956757;28;1887;-68
2022/09/17 02:59:18;;;;;;;;;;;21.30;69.80;;;;;;4973804;28;1039;-67
2022/09/17 03:01:46;;;;;;;;;;;21.30;69.80;;;;;;4956658;28;1582;-68
2022/09/17 03:04:12;;;;;;;;;;;21.30;69.80;;;;;;4956798;28;885;-68
2022/09/17 03:06:38;;;;;;;;;;;21.30;69.80;;;;;;4957126;28;862;-68
2022/09/17 03:09:04;;;;;;;;;;;21.30;69.90;;;;;;4956507;28;1067;-68
2022/09/17 03:11:29;;;;;;;;;;;21.30;69.80;;;;;;4972418;28;1212;-68
2022/09/17 03:13:55;;;;;;;;;;;21.30;69.90;;;;;;4956471;28;875;-68
2022/09/17 03:16:20;;;;;;;;;;;21.30;69.90;;;;;;4974038;28;915;-69
2022/09/17 03:18:46;;;;;;;;;;;21.30;69.80;;;;;;4956259;28;1914;-69
2022/09/17 03:21:11;;;;;;;;;;;21.30;69.90;;;;;;4973749;28;1198;-68
2022/09/17 03:23:38;;;;;;;;;;;21.30;69.90;;;;;;4940716;28;856;-68
2022/09/17 03:26:03;;;;;;;;;;;21.30;69.90;;;;;;4956696;28;832;-68
2022/09/17 03:28:29;;;;;;;;;;;21.30;69.90;;;;;;4956173;28;1115;-68
2022/09/17 03:30:54;;;;;;;;;;;21.30;69.90;;;;;;4973744;28;1150;-68
2022/09/17 03:33:20;;;;;;;;;;;21.30;69.90;;;;;;4956338;28;1285;-68
2022/09/17 03:35:45;;;;;;;;;;;21.20;69.80;;;;;;4958100;28;801;-68
2022/09/17 03:38:11;;;;;;;;;;;21.30;69.90;;;;;;4940722;29;1898;-68
2022/09/17 03:40:36;;;;;;;;;;;21.30;69.90;;;;;;4924776;29;1288;-69
2022/09/17 03:43:02;;;;;;;;;;;21.30;69.90;;;;;;4940800;29;853;-68
2022/09/17 03:45:27;;;;;;;;;;;21.30;69.90;;;;;;4956942;28;1150;-68
2022/09/17 03:47:53;;;;;;;;;;;21.30;69.90;;;;;;4958155;29;983;-69
2022/09/17 03:50:18;;;;;;;;;;;21.30;69.90;;;;;;4958038;28;1195;-68
2022/09/17 03:52:43;;;;;;;;;;;21.30;69.90;;;;;;4958053;28;1093;-68
2022/09/17 03:55:10;;;;;;;;;;;21.30;70.00;;;;;;4957736;28;1018;-68
2022/09/17 03:57:35;;;;;;;;;;;21.30;69.90;;;;;;4940812;29;1875;-68
2022/09/17 04:00:01;;;;;;;;;;;21.30;69.90;;;;;;4940168;28;1162;-67
2022/09/17 04:02:26;;;;;;;;;;;21.30;69.90;;;;;;4957847;29;792;-67
2022/09/17 04:04:52;;;;;;;;;;;21.30;70.00;;;;;;4957690;28;786;-67
2022/09/17 04:07:18;;;;;;;;;;;21.30;70.00;;;;;;4957635;29;848;-69
2022/09/17 04:09:43;;;;;;;;;;;21.30;70.00;;;;;;4939851;28;1315;-69
2022/09/17 04:12:09;;;;;;;;;;;21.20;69.90;;;;;;4940085;29;1142;-69
2022/09/17 04:14:35;;;;;;;;;;;21.30;70.00;;;;;;4956301;28;1289;-69
2022/09/17 04:17:00;;;;;;;;;;;21.30;70.00;;;;;;4945407;28;1968;-69
2022/09/17 04:19:25;;;;;;;;;;;21.30;70.00;;;;;;4959347;28;779;-69
2022/09/17 04:21:51;;;;;;;;;;;21.30;70.00;;;;;;4976671;28;1349;-69
2022/09/17 04:24:17;;;;;;;;;;;21.30;70.00;;;;;;4959492;28;800;-69
2022/09/17 04:26:42;;;;;;;;;;;21.30;70.00;;;;;;4975166;28;1043;-69
2022/09/17 04:29:09;;;;;;;;;;;21.30;70.00;;;;;;4958939;28;1055;-69
2022/09/17 04:31:34;;;;;;;;;;;21.30;70.00;;;;;;4972475;28;1257;-69
2022/09/17 04:33:59;;;;;;;;;;;21.30;70.00;;;;;;4957061;28;1004;-69
2022/09/17 04:36:25;;;;;;;;;;;21.30;70.00;;;;;;4940065;29;860;-69
2022/09/17 04:38:50;;;;;;;;;;;21.30;70.00;;;;;;4961859;28;1906;-70
2022/09/17 04:41:16;;;;;;;;;;;21.30;70.00;;;;;;4971972;28;1379;-70
2022/09/17 04:43:41;;;;;;;;;;;21.30;70.10;;;;;;4975199;28;1608;-69
2022/09/17 04:46:07;;;;;;;;;;;21.20;70.00;;;;;;4976191;28;817;-70
2022/09/17 04:48:32;;;;;;;;;;;21.30;70.10;;;;;;4976390;28;967;-70
2022/09/17 04:50:58;;;;;;;;;;;21.20;70.00;;;;;;4974762;28;1324;-70
2022/09/17 04:53:23;;;;;;;;;;;21.30;70.10;;;;;;4976103;28;1043;-70
2022/09/17 04:55:48;;;;;;;;;;;21.20;70.00;;;;;;4976065;28;1001;-70
2022/09/17 04:58:14;;;;;;;;;;;21.30;70.10;;;;;;4974481;28;1972;-70
2022/09/17 05:00:41;;;;;;;;;;;21.30;70.10;;;;;;4975724;28;1272;-70
2022/09/17 05:03:06;;;;;;;;;;;21.30;70.10;;;;;;4976076;28;872;-70
2022/09/17 05:05:32;;;;;;;;;;;21.30;70.10;;;;;;4975898;28;955;-70
2022/09/17 05:07:57;;;;;;;;;;;21.30;70.10;;;;;;4958631;28;851;-69
2022/09/17 05:10:22;;;;;;;;;;;21.30;70.10;;;;;;4975403;28;1213;-69
2022/09/17 05:12:52;;;;;;;;;;;21.30;70.10;;;;;;4946844;29;1469;-69
2022/09/17 05:15:17;;;;;;;;;;;21.30;70.10;;;;;;4954108;29;903;-69
2022/09/17 05:17:43;;;;;;;;;;;21.30;70.10;;;;;;4941025;28;1968;-70
2022/09/17 05:20:09;;;;;;;;;;;21.30;70.10;;;;;;4972993;28;1304;-70
2022/09/17 05:22:34;;;;;;;;;;;21.30;70.10;;;;;;4974605;28;1049;-69
2022/09/17 05:24:59;;;;;;;;;;;21.30;70.10;;;;;;4974341;28;999;-70
2022/09/17 05:27:25;;;;;;;;;;;21.30;70.20;;;;;;4974637;28;1236;-70
2022/09/17 05:29:50;;;;;;;;;;;21.30;70.20;;;;;;4974210;28;1291;-70
2022/09/17 05:32:16;;;;;;;;;;;21.30;70.20;;;;;;4974298;28;1360;-70
2022/09/17 05:34:41;;;;;;;;;;;21.20;70.10;;;;;;4974302;28;844;-70
2022/09/17 05:37:10;;;;;;;;;;;21.20;70.10;;;;;;4974286;28;1965;-70
2022/09/17 05:39:35;;;;;;;;;;;21.30;70.20;;;;;;4973899;28;772;-69
2022/09/17 05:42:01;;;;;;;;;;;21.20;70.10;;;;;;4989117;28;1375;-70
2022/09/17 05:44:27;;;;;;;;;;;21.20;70.20;;;;;;4989152;28;1225;-69
2022/09/17 05:46:52;;;;;;;;;;;21.30;70.20;;;;;;4975134;28;868;-71
2022/09/17 05:49:18;;;;;;;;;;;21.20;70.10;;;;;;4974821;28;780;-71
2022/09/17 05:51:44;;;;;;;;;;;21.30;70.20;;;;;;4974527;28;1225;-70
2022/09/17 05:54:09;;;;;;;;;;;21.30;70.10;;;;;;4973653;28;931;-70
2022/09/17 05:56:35;;;;;;;;;;;21.30;70.10;;;;;;4974516;28;1011;-70
2022/09/17 05:59:00;;;;;;;;;;;21.30;70.20;;;;;;4974706;28;1970;-69
2022/09/17 06:01:26;;;;;;;;;;;21.30;70.10;;;;;;4974920;28;1299;-70
2022/09/17 06:03:52;;;;;;;;;;;21.30;70.20;;;;;;4975132;28;812;-70
2022/09/17 06:06:18;;;;;;;;;;;21.30;70.20;;;;;;4974594;28;976;-70
2022/09/17 06:08:43;;;;;;;;;;;21.30;70.20;;;;;;4974445;28;963;-70
2022/09/17 06:11:08;;;;;;;;;;;21.30;70.20;;;;;;4974242;28;1280;-70
2022/09/17 06:13:34;;;;;;;;;;;21.30;70.30;;;;;;4973313;28;888;-70
2022/09/17 06:16:00;;;;;;;;;;;21.30;70.30;;;;;;4973876;28;880;-70
2022/09/17 06:18:26;;;;;;;;;;;21.30;70.30;;;;;;4958002;28;2004;-70
2022/09/17 06:20:52;;;;;;;;;;;21.30;70.20;;;;;;4972952;28;1320;-70
2022/09/17 06:23:18;;;;;;;;;;;21.30;70.30;;;;;;4953908;28;1456;-70
2022/09/17 06:25:43;;;;;;;;;;;21.30;70.40;;;;;;4969486;28;1085;-70
2022/09/17 06:28:09;;;;;;;;;;;21.30;70.50;;;;;;4957218;28;1252;-69
2022/09/17 06:30:35;;;;;;;;;;;21.30;70.50;;;;;;4974074;28;1206;-70
2022/09/17 06:33:01;;;;;;;;;;;21.30;70.60;;;;;;4974156;28;1204;-70
2022/09/17 06:35:26;;;;;;;;;;;21.30;70.70;;;;;;4974178;28;1081;-70
2022/09/17 06:37:52;;;;;;;;;;;21.30;70.70;;;;;;4956832;28;1902;-69
2022/09/17 06:40:17;;;;;;;;;;;21.30;70.70;;;;;;4974282;28;1213;-71
2022/09/17 06:42:43;;;;;;;;;;;21.30;70.70;;;;;;4957116;28;1322;-70
2022/09/17 06:45:08;;;;;;;;;;;21.30;70.80;;;;;;4956936;28;868;-70
2022/09/17 06:47:34;;;;;;;;;;;21.30;70.80;;;;;;4974247;28;880;-71
2022/09/17 06:50:00;;;;;;;;;;;21.30;70.80;;;;;;4956530;28;1276;-70
2022/09/17 06:52:26;;;;;;;;;;;21.30;70.90;;;;;;4974189;28;824;-71
2022/09/17 06:54:51;;;;;;;;;;;21.30;71.00;;;;;;4956681;28;792;-70
2022/09/17 06:57:16;;;;;;;;;;;21.30;71.10;;;;;;4974081;28;1981;-71
2022/09/17 06:59:42;;;;;;;;;;;21.30;71.20;;;;;;4956700;28;1316;-70
2022/09/17 07:02:08;;;;;;;;;;;21.30;71.20;;;;;;4974181;28;985;-68
2022/09/17 07:04:33;;;;;;;;;;;21.30;71.10;;;;;;4973919;28;1104;-68
2022/09/17 07:06:58;;;;;;;;;;;21.30;71.10;;;;;;4957328;28;1084;-69
2022/09/17 07:09:24;;;;;;;;;;;21.30;71.20;;;;;;4975313;28;2241;-69
2022/09/17 07:11:49;;;;;;;;;;;21.30;71.10;;;;;;4960395;28;1320;-69
2022/09/17 07:14:15;;;;;;;;;;;21.30;71.10;;;;;;4978056;28;1152;-69
2022/09/17 07:16:40;;;;;;;;;;;21.30;71.10;;;;;;4976383;28;1902;-69
2022/09/17 07:19:06;;;;;;;;;;;21.30;71.20;;;;;;4960589;28;777;-69
2022/09/17 07:21:31;;;;;;;;;;;21.30;71.20;;;;;;4978008;28;1197;-69
2022/09/17 07:23:57;;;;;;;;;;;21.30;71.10;;;;;;4976358;28;919;-69
2022/09/17 07:26:22;;;;;;;;;;;21.30;71.10;;;;;;4960405;28;869;-69
2022/09/17 07:28:48;;;;;;;;;;;21.30;71.10;;;;;;4960065;28;1046;-69
2022/09/17 07:31:13;;;;;;;;;;;21.30;71.10;;;;;;4976425;28;1220;-69
2022/09/17 07:33:39;;;;;;;;;;;21.30;71.10;;;;;;4941190;29;932;-69
2022/09/17 07:36:05;;;;;;;;;;;21.30;71.00;;;;;;4951079;28;2048;-70
2022/09/17 07:38:30;;;;;;;;;;;21.30;70.90;;;;;;4976338;28;1954;-70
2022/09/17 07:40:57;;;;;;;;;;;21.30;71.00;;;;;;4959428;28;1281;-70
2022/09/17 07:43:23;;;;;;;;;;;21.30;71.00;;;;;;4947035;28;1068;-69
2022/09/17 07:45:48;;;;;;;;;;;21.30;70.90;;;;;;4948489;28;991;-69
2022/09/17 07:48:14;;;;;;;;;;;21.30;71.00;;;;;;4974561;28;1167;-69
2022/09/17 07:50:39;;;;;;;;;;;21.30;71.00;;;;;;4976668;28;1306;-70
2022/09/17 07:53:05;;;;;;;;;;;21.30;71.00;;;;;;4977135;28;824;-69
2022/09/17 07:55:30;;;;;;;;;;;21.30;71.00;;;;;;4973382;28;2367;-69
2022/09/17 07:57:56;;;;;;;;;;;21.30;71.00;;;;;;4949562;29;1903;-69
2022/09/17 08:00:21;;;;;;;;;;;21.30;71.00;;;;;;4957237;28;1221;-69
2022/09/17 08:02:53;;;;;;;;;;;21.30;71.00;;;;;;4957778;29;920;-69
2022/09/17 08:05:19;;;;;;;;;;;21.30;71.00;;;;;;4924587;29;1150;-69
2022/09/17 08:07:48;;;;;;;;;;;21.30;71.00;;;;;;4924344;29;1120;-69
2022/09/17 08:10:13;;;;;;;;;;;21.30;71.00;;;;;;4940153;29;1207;-69
2022/09/17 08:12:39;;;;;;;;;;;21.30;71.00;;;;;;4957481;29;777;-69
2022/09/17 08:15:04;;;;;;;;;;;21.30;71.00;;;;;;4924482;29;1170;-69
2022/09/17 08:17:30;;;;;;;;;;;21.30;71.70;;;;;;4966259;28;1906;-70
2022/09/17 08:19:56;;;;;;;;;;;21.30;71.00;;;;;;4975879;28;1209;-69
2022/09/17 08:22:21;;;;;;;;;;;21.30;71.00;;;;;;4976637;28;883;-69
2022/09/17 08:24:47;;;;;;;;;;;21.30;71.00;;;;;;4976787;28;892;-69
2022/09/17 08:27:12;;;;;;;;;;;21.30;71.00;;;;;;4976631;28;800;-69
2022/09/17 08:29:38;;;;;;;;;;;21.30;71.00;;;;;;4975090;28;2196;-69
2022/09/17 08:32:03;;;;;;;;;;;21.30;71.00;;;;;;4959115;28;1249;-69
2022/09/17 08:34:28;;;;;;;;;;;21.30;71.00;;;;;;4958877;28;1111;-69
2022/09/17 08:36:54;;;;;;;;;;;21.30;70.90;;;;;;4976219;28;1902;-69
2022/09/17 08:39:20;;;;;;;;;;;21.30;71.00;;;;;;4959162;28;761;-70
2022/09/17 08:41:54;;;;;;;;;;;21.30;71.00;;;;;;4976315;28;1186;-69
2022/09/17 08:44:23;;;;;;;;;;;21.30;70.90;;;;;;4958956;28;859;-70
2022/09/17 08:46:49;;;;;;;;;;;21.30;70.90;;;;;;4976173;28;800;-70
2022/09/17 08:49:19;;;;;;;;;;;21.30;70.90;;;;;;4975735;28;780;-69
2022/09/17 08:52:01;;;;;;;;;;;21.30;70.90;;;;;;4976348;28;1268;-69
2022/09/17 08:54:35;;;;;;;;;;;21.30;70.90;;;;;;4976205;28;902;-70
2022/09/17 08:57:16;;;;;;;;;;;21.30;70.90;;;;;;4958626;28;1962;-69
2022/09/17 08:59:48;;;;;;;;;;;21.30;70.90;;;;;;4958206;28;1205;-70
2022/09/17 09:02:31;;;;;;;;;;;21.30;70.90;;;;;;4958598;28;1100;-69
2022/09/17 09:04:57;;;;;;;;;;;21.30;70.90;;;;;;4958727;28;773;-70
2022/09/17 09:07:26;;;;;;;;;;;21.30;70.90;;;;;;4958415;28;1196;-69
2022/09/17 09:09:55;;;;;;;;;;;21.30;70.90;;;;;;4957827;28;2191;-70
2022/09/17 09:12:24;;;;;;;;;;;21.30;71.00;;;;;;4974640;28;1371;-69
2022/09/17 09:14:51;;;;;;;;;;;21.30;70.90;;;;;;4958352;28;1168;-70
2022/09/17 09:17:17;;;;;;;;;;;21.30;71.00;;;;;;4958433;28;1983;-70
2022/09/17 09:19:45;;;;;;;;;;;21.30;71.00;;;;;;4957958;28;1229;-69
2022/09/17 09:22:13;;;;;;;;;;;21.30;71.00;;;;;;4958788;28;1272;-70
2022/09/17 09:24:57;;;;;;;;;;;21.30;70.90;;;;;;4958095;28;860;-69
2022/09/17 09:27:26;;;;;;;;;;;21.30;71.00;;;;;;4973503;28;1183;-69
2022/09/17 09:30:02;;;;;;;;;;;21.30;71.00;;;;;;4969613;28;1345;-69
2022/09/17 09:32:31;;;;;;;;;;;21.30;71.00;;;;;;4964207;28;1313;-69
2022/09/17 09:34:56;;;;;;;;;;;21.30;71.00;;;;;;4974169;28;896;-69
2022/09/17 09:37:42;;;;;;;;;;;21.30;70.90;;;;;;4972835;28;1971;-69
2022/09/17 09:40:22;;;;;;;;;;;21.30;70.90;;;;;;4973562;28;1316;-69
2022/09/17 09:42:48;;;;;;;;;;;21.30;71.00;;;;;;4973385;28;1142;-69
2022/09/17 09:45:15;;;;;;;;;;;21.30;70.90;;;;;;4957006;28;1189;-69
2022/09/17 09:47:59;;;;;;;;;;;21.30;70.90;;;;;;4973428;28;1129;-70
2022/09/17 09:50:44;;;;;;;;;;;21.30;71.00;;;;;;4974511;28;1316;-69
2022/09/17 09:53:28;;;;;;;;;;;21.30;71.00;;;;;;4974854;28;796;-69
2022/09/17 09:56:13;;;;;;;;;;;21.30;71.00;;;;;;4973586;28;851;-69
2022/09/17 09:58:39;;;;;;;;;;;21.30;71.00;;;;;;4974799;28;1973;-69
2022/09/17 10:01:14;;;;;;;;;;;21.30;70.90;;;;;;4974277;28;1382;-69
2022/09/17 10:03:40;;;;;;;;;;;21.30;70.90;;;;;;4973791;28;991;-69
2022/09/17 10:06:06;;;;;;;;;;;21.30;70.90;;;;;;4973803;28;1496;-69
2022/09/17 10:08:33;;;;;;;;;;;21.30;71.00;;;;;;4973190;28;1192;-69
2022/09/17 10:10:59;;;;;;;;;;;21.30;71.00;;;;;;4973479;28;1194;-69
2022/09/17 10:13:25;;;;;;;;;;;21.30;71.00;;;;;;4957362;28;1201;-69
2022/09/17 10:15:51;;;;;;;;;;;21.30;71.00;;;;;;4973414;28;1090;-69
2022/09/17 10:18:20;;;;;;;;;;;21.30;71.00;;;;;;4955701;28;1968;-70
2022/09/17 10:20:56;;;;;;;;;;;21.30;71.00;;;;;;4968126;28;1339;-69
2022/09/17 10:23:21;;;;;;;;;;;21.30;71.00;;;;;;4954774;29;893;-70
2022/09/17 10:25:47;;;;;;;;;;;21.30;71.00;;;;;;4964111;28;957;-70
2022/09/17 10:28:28;;;;;;;;;;;21.30;71.00;;;;;;4971812;28;729;-69
2022/09/17 10:30:54;;;;;;;;;;;21.30;71.00;;;;;;4971999;28;1214;-69
2022/09/17 10:33:20;;;;;;;;;;;21.30;71.00;;;;;;4970346;28;1238;-69
2022/09/17 10:35:53;;;;;;;;;;;21.30;71.00;;;;;;4972332;28;793;-70
2022/09/17 10:38:30;;;;;;;;;;;21.30;71.00;;;;;;4987852;28;1904;-70
2022/09/17 10:41:07;;;;;;;;;;;21.30;71.00;;;;;;4973388;28;1186;-69
2022/09/17 10:43:32;;;;;;;;;;;21.30;71.00;;;;;;4971854;28;1174;-69
2022/09/17 10:45:58;;;;;;;;;;;21.30;70.90;;;;;;4963557;28;4033;-70
2022/09/17 10:48:23;;;;;;;;;;;21.30;71.00;;;;;;4943110;29;4755;-70
2022/09/17 10:50:49;;;;;;;;;;;21.30;70.90;;;;;;4952483;28;1348;-70
2022/09/17 10:53:15;;;;;;;;;;;21.30;70.90;;;;;;4931138;23;2776;-71
2022/09/17 10:55:43;;;;;;;;;;;21.30;70.90;;;;;;4976529;28;1075;-70
2022/09/17 10:58:27;;;;;;;;;;;21.30;70.90;;;;;;4964892;28;2171;-70
2022/09/17 11:01:11;;;;;;;;;;;21.30;70.90;;;;;;4949379;28;1387;-70
2022/09/17 11:04:03;;;;;;;;;;;21.30;70.90;;;;;;4952386;28;1351;-70
2022/09/17 11:06:29;;;;;;;;;;;21.30;70.90;;;;;;4924044;28;2150;-70
2022/09/17 11:09:03;;;;;;;;;;;21.30;70.90;;;;;;4954370;28;1166;-72
2022/09/17 11:11:31;;;;;;;;;;;21.30;70.90;;;;;;4939359;28;4631;-70
2022/09/17 11:14:15;;;;;;;;;;;21.30;71.00;;;;;;4952344;28;1385;-70
2022/09/17 11:16:45;;;;;;;;;;;21.30;70.90;;;;;;4949220;28;2277;-70
2022/09/17 11:19:22;;;;;;;;;;;21.30;70.90;;;;;;4967857;28;1907;-71
2022/09/17 11:21:48;;;;;;;;;;;21.30;71.00;;;;;;4966050;28;1380;-68
2022/09/17 11:24:26;;;;;;;;;;;21.30;70.90;;;;;;4963043;28;866;-70
2022/09/17 11:26:51;;;;;;;;;;;21.30;71.00;;;;;;4962597;28;863;-71
2022/09/17 11:29:17;;;;;;;;;;;21.30;71.00;;;;;;4948541;28;1043;-70
2022/09/17 11:31:42;;;;;;;;;;;21.30;71.00;;;;;;4951936;28;4421;-69
2022/09/17 11:34:08;;;;;;;;;;;21.30;71.00;;;;;;4954660;28;4202;-71
2022/09/17 11:36:45;;;;;;;;;;;21.30;71.00;;;;;;4967275;28;4038;-70
2022/09/17 11:39:13;;;;;;;;;;;21.30;71.00;;;;;;4955019;28;4551;-70
2022/09/17 11:41:42;;;;;;;;;;;21.30;71.00;;;;;;4941018;28;4133;-71
2022/09/17 11:44:09;;;;;;;;;;;21.30;71.00;;;;;;4968862;28;4027;-72
2022/09/17 11:46:45;;;;;;;;;;;21.30;71.10;;;;;;4953651;28;4641;-71
2022/09/17 11:49:25;;;;;;;;;;;21.30;71.00;;;;;;4960717;28;4657;-70
2022/09/17 11:51:55;;;;;;;;;;;21.30;71.00;;;;;;4977009;28;4920;-71
2022/09/17 11:54:20;;;;;;;;;;;21.30;71.00;;;;;;4961100;28;4269;-69
2022/09/17 11:56:50;;;;;;;;;;;21.30;71.00;;;;;;4960264;28;3981;-69
2022/09/17 11:59:33;;;;;;;;;;;21.30;71.00;;;;;;4966362;28;1609;-68
2022/09/17 12:02:01;;;;;;;;;;;21.30;71.00;;;;;;4960048;28;4211;-69
2022/09/17 12:04:35;;;;;;;;;;;21.30;71.00;;;;;;4970857;28;1268;-70
2022/09/17 12:07:10;;;;;;;;;;;21.30;71.00;;;;;;4954351;28;1238;-70
2022/09/17 12:09:35;;;;;;;;;;;21.30;71.00;;;;;;4988372;28;1160;-70
2022/09/17 12:12:17;;;;;;;;;;;21.30;71.00;;;;;;4972535;28;1289;-69
2022/09/17 12:14:47;;;;;;;;;;;21.30;71.00;;;;;;4989875;28;871;-69
2022/09/17 12:17:14;;;;;;;;;;;21.30;71.10;;;;;;4990138;28;1899;-68
2022/09/17 12:19:41;;;;;;;;;;;21.30;71.10;;;;;;4972490;28;1461;-68
2022/09/17 12:22:08;;;;;;;;;;;21.30;71.00;;;;;;4974005;28;1179;-69
2022/09/17 12:24:33;;;;;;;;;;;21.30;71.10;;;;;;4972660;28;837;-69
2022/09/17 12:27:11;;;;;;;;;;;21.30;71.10;;;;;;4974725;28;745;-69
2022/09/17 12:29:39;;;;;;;;;;;21.30;71.00;;;;;;4969829;28;1836;-70
2022/09/17 12:32:21;;;;;;;;;;;21.30;71.00;;;;;;4974265;28;1200;-69
2022/09/17 12:34:53;;;;;;;;;;;21.30;71.10;;;;;;4991422;28;1087;-69
2022/09/17 12:37:37;;;;;;;;;;;21.30;71.00;;;;;;4976026;28;1911;-69
2022/09/17 12:40:06;;;;;;;;;;;21.30;71.10;;;;;;4975501;28;1351;-70
2022/09/17 12:42:34;;;;;;;;;;;21.30;71.10;;;;;;4975231;28;1141;-70
2022/09/17 12:45:00;;;;;;;;;;;21.30;71.00;;;;;;4975848;28;946;-70
2022/09/17 12:47:35;;;;;;;;;;;21.30;71.10;;;;;;4990895;28;1303;-69
2022/09/17 12:50:13;;;;;;;;;;;21.30;71.80;;;;;;4989485;28;1245;-69
2022/09/17 12:52:52;;;;;;;;;;;21.30;71.80;;;;;;4984973;28;966;-69
2022/09/17 12:55:23;;;;;;;;;;;21.30;71.00;;;;;;4991025;28;742;-69
2022/09/17 12:57:55;;;;;;;;;;;21.30;71.10;;;;;;4975685;28;1914;-69
2022/09/17 13:00:21;;;;;;;;;;;21.30;71.10;;;;;;4990360;28;1289;-70
2022/09/17 13:03:05;;;;;;;;;;;21.30;71.00;;;;;;4975927;28;924;-69
2022/09/17 13:05:45;;;;;;;;;;;21.30;71.10;;;;;;4970982;28;704;-70
2022/09/17 13:08:22;;;;;;;;;;;21.30;71.00;;;;;;4972655;28;2000;-69
2022/09/17 13:10:51;;;;;;;;;;;21.30;71.10;;;;;;4970813;28;2207;-69
2022/09/17 13:13:25;;;;;;;;;;;21.30;71.10;;;;;;4977276;28;1936;-69
2022/09/17 13:16:03;;;;;;;;;;;21.30;71.10;;;;;;4972079;28;1116;-71
2022/09/17 13:18:38;;;;;;;;;;;21.30;71.10;;;;;;4969830;28;1899;-69
2022/09/17 13:21:13;;;;;;;;;;;21.30;71.10;;;;;;4957153;28;1803;-69
2022/09/17 13:23:42;;;;;;;;;;;21.30;71.10;;;;;;4962384;28;2413;-69
2022/09/17 13:26:08;;;;;;;;;;;21.30;71.10;;;;;;4967489;28;886;-69
2022/09/17 13:28:37;;;;;;;;;;;21.30;71.10;;;;;;4964502;28;1013;-70
2022/09/17 13:31:03;;;;;;;;;;;21.30;71.10;;;;;;4963332;28;1367;-69
2022/09/17 13:33:49;;;;;;;;;;;21.30;71.10;;;;;;4963564;28;1257;-69
2022/09/17 13:36:35;;;;;;;;;;;21.30;71.10;;;;;;4963451;28;1988;-69
2022/09/17 13:39:01;;;;;;;;;;;21.30;71.20;;;;;;4974087;28;2073;-70
2022/09/17 13:41:26;;;;;;;;;;;21.30;71.10;;;;;;4982440;28;1838;-69
2022/09/17 13:43:54;;;;;;;;;;;21.30;71.20;;;;;;4986745;28;954;-69
2022/09/17 13:46:27;;;;;;;;;;;21.30;71.20;;;;;;4971230;28;4458;-71
2022/09/17 13:48:54;;;;;;;;;;;21.30;71.20;;;;;;4961709;28;4031;-69
2022/09/17 13:51:29;;;;;;;;;;;21.30;71.20;;;;;;4981993;28;2119;-69
2022/09/17 13:53:54;;;;;;;;;;;21.30;71.20;;;;;;4960978;28;1241;-69
2022/09/17 13:56:30;;;;;;;;;;;21.30;71.10;;;;;;4981855;28;915;-69
2022/09/17 13:59:04;;;;;;;;;;;21.30;71.20;;;;;;4971167;28;1981;-69
2022/09/17 14:01:49;;;;;;;;;;;21.30;71.10;;;;;;4972235;28;1312;-70
2022/09/17 14:04:41;;;;;;;;;;;21.30;71.20;;;;;;4972061;28;1079;-70
2022/09/17 14:07:22;;;;;;;;;;;21.30;71.20;;;;;;4964500;28;5441;-69
2022/09/17 14:09:56;;;;;;;;;;;21.30;71.10;;;;;;4965562;28;4515;-69
2022/09/17 14:12:37;;;;;;;;;;;21.30;71.20;;;;;;4962438;28;4733;-69
2022/09/17 14:15:03;;;;;;;;;;;21.30;71.20;;;;;;4974332;28;4022;-69
2022/09/17 14:17:49;;;;;;;;;;;21.30;71.20;;;;;;4969897;28;4288;-69
2022/09/17 14:20:16;;;;;;;;;;;21.30;71.20;;;;;;4983343;28;2127;-69
2022/09/17 14:22:41;;;;;;;;;;;21.30;71.20;;;;;;4981510;28;1870;-69
2022/09/17 14:25:14;;;;;;;;;;;21.30;71.20;;;;;;4979128;28;1350;-69
2022/09/17 14:27:49;;;;;;;;;;;21.30;71.20;;;;;;4984663;28;1434;-69
2022/09/17 14:30:21;;;;;;;;;;;21.30;71.20;;;;;;4969852;28;1225;-69
2022/09/17 14:32:50;;;;;;;;;;;21.30;71.20;;;;;;4963887;28;4762;-69
2022/09/17 14:35:34;;;;;;;;;;;21.30;71.20;;;;;;4962354;28;3296;-69
2022/09/17 14:38:01;;;;;;;;;;;21.30;71.30;;;;;;4980335;28;4408;-69
2022/09/17 14:40:27;;;;;;;;;;;21.30;71.20;;;;;;4968232;28;4490;-69
2022/09/17 14:42:54;;;;;;;;;;;21.30;71.20;;;;;;4945820;28;3465;-69
2022/09/17 14:45:39;;;;;;;;;;;21.30;71.20;;;;;;4961170;28;3821;-69
2022/09/17 14:48:21;;;;;;;;;;;21.30;71.20;;;;;;4960884;28;3492;-69